createdAt,value
2017-12-15T00:00:06.768Z,81.52
2017-12-15T00:01:08.581Z,81.62
2017-12-15T00:02:10.390Z,81.43
2017-12-15T00:03:12.202Z,81.33
2017-12-15T00:04:14.078Z,81.90
2017-12-15T00:05:15.962Z,81.99
2017-12-15T00:06:17.810Z,82.47
2017-12-15T00:07:19.622Z,83.04
2017-12-15T00:08:21.459Z,83.56
2017-12-15T00:09:35.668Z,83.75
2017-12-15T00:10:37.543Z,83.66
2017-12-15T00:11:39.425Z,83.47
2017-12-15T00:12:41.298Z,83.75
2017-12-15T00:13:43.118Z,84.32
2017-12-15T00:14:44.939Z,83.37
2017-12-15T00:15:46.821Z,83.66
2017-12-15T00:16:48.692Z,83.75
2017-12-15T00:17:50.578Z,84.32
2017-12-15T00:19:04.722Z,83.70
2017-12-15T00:20:06.606Z,83.75
2017-12-15T00:21:08.488Z,84.08
2017-12-15T00:22:10.360Z,83.13
2017-12-15T00:23:12.171Z,83.61
2017-12-15T00:24:13.981Z,83.32
2017-12-15T00:25:15.853Z,82.94
2017-12-15T00:26:17.737Z,83.13
2017-12-15T00:27:19.610Z,82.94
2017-12-15T00:28:33.766Z,83.13
2017-12-15T00:29:35.649Z,83.04
2017-12-15T00:30:37.529Z,82.71
2017-12-15T00:31:39.402Z,83.04
2017-12-15T00:32:41.225Z,83.13
2017-12-15T00:33:43.033Z,82.85
2017-12-15T00:34:44.908Z,83.04
2017-12-15T00:35:46.780Z,82.94
2017-12-15T00:36:48.664Z,83.13
2017-12-15T00:38:02.810Z,83.09
2017-12-15T00:39:04.722Z,83.37
2017-12-15T00:40:06.556Z,83.66
2017-12-15T00:41:08.443Z,83.23
2017-12-15T00:42:10.250Z,83.61
2017-12-15T00:43:12.060Z,82.85
2017-12-15T00:44:13.930Z,82.85
2017-12-15T00:45:15.812Z,83.13
2017-12-15T00:46:17.683Z,82.47
2017-12-15T00:47:31.830Z,82.47
2017-12-15T00:48:33.700Z,82.28
2017-12-15T00:49:35.570Z,82.47
2017-12-15T00:50:37.444Z,82.47
2017-12-15T00:51:39.257Z,82.75
2017-12-15T00:52:41.079Z,82.37
2017-12-15T00:53:42.952Z,81.99
2017-12-15T00:54:44.795Z,82.47
2017-12-15T00:55:46.648Z,82.18
2017-12-15T00:57:00.842Z,82.56
2017-12-15T00:58:02.715Z,82.47
2017-12-15T00:59:04.593Z,82.09
2017-12-15T01:00:06.478Z,81.90
2017-12-15T01:01:08.301Z,82.28
2017-12-15T01:02:10.123Z,81.66
2017-12-15T01:03:11.996Z,81.75
2017-12-15T01:04:13.871Z,81.37
2017-12-15T01:05:15.748Z,81.47
2017-12-15T01:06:29.943Z,81.47
2017-12-15T01:07:31.816Z,81.37
2017-12-15T01:08:33.696Z,81.37
2017-12-15T01:09:35.569Z,81.66
2017-12-15T01:10:37.391Z,81.56
2017-12-15T01:11:39.213Z,82.04
2017-12-15T01:12:41.097Z,81.66
2017-12-15T01:13:42.971Z,82.13
2017-12-15T01:14:44.855Z,82.32
2017-12-15T01:15:59.066Z,81.47
2017-12-15T01:17:00.935Z,81.75
2017-12-15T01:18:02.815Z,81.66
2017-12-15T01:19:04.688Z,81.85
2017-12-15T01:20:06.505Z,82.04
2017-12-15T01:21:08.314Z,82.32
2017-12-15T01:22:10.189Z,82.13
2017-12-15T01:23:12.073Z,82.32
2017-12-15T01:24:14.140Z,82.13
2017-12-15T01:25:28.298Z,81.56
2017-12-15T01:26:30.181Z,81.94
2017-12-15T01:27:32.059Z,81.56
2017-12-15T01:28:33.931Z,81.56
2017-12-15T01:29:35.744Z,81.56
2017-12-15T01:30:37.564Z,81.37
2017-12-15T01:31:39.446Z,81.47
2017-12-15T01:32:41.330Z,81.37
2017-12-15T01:33:43.214Z,81.56
2017-12-15T01:34:57.374Z,81.24
2017-12-15T01:35:59.247Z,81.75
2017-12-15T01:37:01.130Z,81.75
2017-12-15T01:38:03.012Z,81.47
2017-12-15T01:39:04.824Z,81.56
2017-12-15T01:40:06.645Z,81.94
2017-12-15T01:41:08.529Z,81.66
2017-12-15T01:42:10.403Z,81.81
2017-12-15T01:43:12.280Z,81.71
2017-12-15T01:44:26.426Z,82.18
2017-12-15T01:45:28.298Z,82.28
2017-12-15T01:46:30.179Z,82.09
2017-12-15T01:47:32.076Z,82.37
2017-12-15T01:48:33.876Z,82.47
2017-12-15T01:49:35.696Z,82.28
2017-12-15T01:50:37.577Z,82.75
2017-12-15T01:51:39.466Z,83.13
2017-12-15T01:52:41.339Z,83.61
2017-12-15T01:53:55.484Z,83.70
2017-12-15T01:54:57.356Z,83.98
2017-12-15T01:55:59.228Z,83.70
2017-12-15T01:57:01.110Z,83.47
2017-12-15T01:58:02.921Z,83.85
2017-12-15T01:59:04.734Z,83.85
2017-12-15T02:00:06.614Z,84.51
2017-12-15T02:01:08.487Z,84.23
2017-12-15T02:02:10.359Z,84.55
2017-12-15T02:03:24.504Z,84.70
2017-12-15T02:04:26.379Z,83.85
2017-12-15T02:05:28.256Z,84.13
2017-12-15T02:06:30.131Z,83.51
2017-12-15T02:07:31.944Z,83.56
2017-12-15T02:08:33.753Z,83.70
2017-12-15T02:09:35.626Z,83.66
2017-12-15T02:10:37.509Z,84.08
2017-12-15T02:11:39.381Z,83.23
2017-12-15T02:12:53.526Z,83.23
2017-12-15T02:13:55.399Z,82.94
2017-12-15T02:14:57.270Z,83.04
2017-12-15T02:15:59.152Z,83.13
2017-12-15T02:17:00.962Z,82.28
2017-12-15T02:18:02.775Z,82.56
2017-12-15T02:19:04.650Z,82.09
2017-12-15T02:20:06.534Z,82.47
2017-12-15T02:21:08.409Z,82.28
2017-12-15T02:22:22.556Z,82.09
2017-12-15T02:23:24.429Z,82.18
2017-12-15T02:24:26.303Z,82.09
2017-12-15T02:25:28.174Z,82.09
2017-12-15T02:26:29.986Z,81.90
2017-12-15T02:27:31.807Z,81.90
2017-12-15T02:28:33.679Z,82.28
2017-12-15T02:29:35.562Z,81.99
2017-12-15T02:30:37.438Z,82.18
2017-12-15T02:31:51.582Z,82.18
2017-12-15T02:32:53.452Z,82.37
2017-12-15T02:33:55.325Z,82.28
2017-12-15T02:34:57.197Z,82.28
2017-12-15T02:35:59.017Z,82.09
2017-12-15T02:37:00.821Z,81.94
2017-12-15T02:38:02.693Z,81.66
2017-12-15T02:39:04.566Z,81.09
2017-12-15T02:40:06.450Z,80.90
2017-12-15T02:41:20.597Z,81.09
2017-12-15T02:42:22.469Z,80.52
2017-12-15T02:43:24.345Z,80.43
2017-12-15T02:44:26.217Z,80.24
2017-12-15T02:45:28.030Z,80.24
2017-12-15T02:46:29.852Z,80.14
2017-12-15T02:47:31.726Z,80.43
2017-12-15T02:48:33.599Z,80.62
2017-12-15T02:49:35.473Z,80.99
2017-12-15T02:50:49.667Z,81.75
2017-12-15T02:51:51.539Z,82.13
2017-12-15T02:52:53.422Z,82.42
2017-12-15T02:53:55.296Z,81.85
2017-12-15T02:54:57.123Z,82.04
2017-12-15T02:55:58.937Z,82.04
2017-12-15T02:57:00.831Z,82.13
2017-12-15T02:58:02.707Z,81.66
2017-12-15T02:59:04.587Z,81.56
2017-12-15T03:00:18.777Z,82.13
2017-12-15T03:01:20.664Z,81.66
2017-12-15T03:02:22.542Z,81.56
2017-12-15T03:03:24.419Z,81.09
2017-12-15T03:04:26.230Z,81.09
2017-12-15T03:05:28.053Z,80.90
2017-12-15T03:06:29.930Z,81.09
2017-12-15T03:07:31.805Z,80.80
2017-12-15T03:08:33.691Z,81.09
2017-12-15T03:09:47.847Z,80.90
2017-12-15T03:10:49.734Z,80.99
2017-12-15T03:11:51.613Z,80.52
2017-12-15T03:12:53.488Z,80.52
2017-12-15T03:13:55.351Z,80.43
2017-12-15T03:14:57.175Z,80.04
2017-12-15T03:15:58.993Z,79.66
2017-12-15T03:17:00.879Z,79.66
2017-12-15T03:18:02.755Z,79.95
2017-12-15T03:19:17.011Z,79.85
2017-12-15T03:20:18.898Z,79.47
2017-12-15T03:21:20.785Z,79.66
2017-12-15T03:22:22.684Z,79.61
2017-12-15T03:23:24.501Z,79.28
2017-12-15T03:24:26.324Z,79.00
2017-12-15T03:25:28.198Z,79.14
2017-12-15T03:26:30.087Z,79.10
2017-12-15T03:27:31.973Z,79.23
2017-12-15T03:28:46.120Z,79.19
2017-12-15T03:29:48.013Z,79.00
2017-12-15T03:30:49.892Z,78.72
2017-12-15T03:31:51.767Z,78.24
2017-12-15T03:32:53.577Z,79.14
2017-12-15T03:33:55.390Z,79.33
2017-12-15T03:34:57.269Z,78.66
2017-12-15T03:35:59.143Z,78.66
2017-12-15T03:37:01.028Z,78.66
2017-12-15T03:38:15.180Z,78.38
2017-12-15T03:39:17.054Z,78.56
2017-12-15T03:40:18.933Z,78.47
2017-12-15T03:41:20.816Z,77.81
2017-12-15T03:42:22.643Z,78.00
2017-12-15T03:43:24.459Z,78.00
2017-12-15T03:44:26.331Z,78.09
2017-12-15T03:45:28.218Z,77.62
2017-12-15T03:46:30.105Z,77.52
2017-12-15T03:47:44.253Z,77.62
2017-12-15T03:48:46.140Z,77.52
2017-12-15T03:49:48.026Z,77.43
2017-12-15T03:50:49.913Z,77.33
2017-12-15T03:51:51.741Z,77.33
2017-12-15T03:52:53.551Z,77.43
2017-12-15T03:53:55.426Z,77.52
2017-12-15T03:54:57.302Z,77.62
2017-12-15T03:55:59.189Z,77.33
2017-12-15T03:57:13.346Z,77.33
2017-12-15T03:58:15.231Z,77.33
2017-12-15T03:59:17.118Z,77.43
2017-12-15T04:00:18.992Z,77.24
2017-12-15T04:01:20.818Z,77.33
2017-12-15T04:02:22.631Z,77.71
2017-12-15T04:03:24.518Z,77.52
2017-12-15T04:04:26.402Z,77.52
2017-12-15T04:05:28.289Z,77.81
2017-12-15T04:06:42.450Z,77.71
2017-12-15T04:07:44.337Z,77.62
2017-12-15T04:08:46.214Z,77.71
2017-12-15T04:09:48.086Z,77.81
2017-12-15T04:10:49.912Z,77.90
2017-12-15T04:11:51.735Z,77.71
2017-12-15T04:12:53.621Z,77.52
2017-12-15T04:13:55.497Z,77.71
2017-12-15T04:14:57.384Z,78.00
2017-12-15T04:16:11.543Z,77.90
2017-12-15T04:17:13.419Z,78.56
2017-12-15T04:18:15.297Z,78.85
2017-12-15T04:19:17.170Z,78.38
2017-12-15T04:20:18.997Z,78.38
2017-12-15T04:21:20.818Z,78.56
2017-12-15T04:22:22.702Z,78.75
2017-12-15T04:23:24.578Z,78.66
2017-12-15T04:24:26.465Z,78.75
2017-12-15T04:25:40.613Z,79.33
2017-12-15T04:26:42.500Z,79.04
2017-12-15T04:27:44.387Z,79.52
2017-12-15T04:28:46.264Z,79.14
2017-12-15T04:29:48.076Z,79.14
2017-12-15T04:30:49.899Z,79.71
2017-12-15T04:31:51.788Z,79.42
2017-12-15T04:32:53.675Z,79.80
2017-12-15T04:33:55.551Z,79.90
2017-12-15T04:35:09.760Z,79.52
2017-12-15T04:36:11.633Z,80.18
2017-12-15T04:37:13.518Z,80.27
2017-12-15T04:38:15.399Z,80.27
2017-12-15T04:39:17.206Z,80.04
2017-12-15T04:40:19.018Z,80.18
2017-12-15T04:41:20.903Z,79.90
2017-12-15T04:42:22.791Z,80.18
2017-12-15T04:43:24.667Z,80.08
2017-12-15T04:44:38.814Z,79.90
2017-12-15T04:45:40.700Z,80.46
2017-12-15T04:46:42.586Z,80.08
2017-12-15T04:47:44.459Z,80.24
2017-12-15T04:48:46.286Z,80.56
2017-12-15T04:49:48.101Z,80.75
2017-12-15T04:50:49.986Z,81.18
2017-12-15T04:51:51.871Z,80.99
2017-12-15T04:52:53.747Z,81.37
2017-12-15T04:54:07.957Z,81.32
2017-12-15T04:55:09.831Z,80.71
2017-12-15T04:56:11.709Z,81.04
2017-12-15T04:57:13.595Z,81.51
2017-12-15T04:58:15.413Z,81.32
2017-12-15T04:59:17.223Z,80.94
2017-12-15T05:00:19.107Z,81.32
2017-12-15T05:01:21.028Z,81.32
2017-12-15T05:02:23.015Z,80.90
2017-12-15T05:03:37.317Z,81.32
2017-12-15T05:04:39.308Z,81.60
2017-12-15T05:05:41.255Z,81.60
2017-12-15T05:06:43.206Z,81.66
2017-12-15T05:07:45.146Z,81.70
2017-12-15T05:08:47.124Z,81.60
2017-12-15T05:09:49.191Z,81.79
2017-12-15T05:10:51.267Z,81.79
2017-12-15T05:11:53.291Z,81.79
2017-12-15T05:13:07.649Z,81.60
2017-12-15T05:14:09.629Z,81.79
2017-12-15T05:15:11.662Z,81.88
2017-12-15T05:16:13.652Z,81.79
2017-12-15T05:17:15.560Z,81.88
2017-12-15T05:18:17.437Z,82.17
2017-12-15T05:19:19.324Z,82.36
2017-12-15T05:20:21.185Z,82.17
2017-12-15T05:21:23.072Z,82.36
2017-12-15T05:22:37.225Z,82.17
2017-12-15T05:23:39.102Z,82.55
2017-12-15T05:24:40.994Z,82.65
2017-12-15T05:25:42.852Z,82.60
2017-12-15T05:26:44.680Z,82.79
2017-12-15T05:27:46.490Z,82.98
2017-12-15T05:28:48.365Z,83.36
2017-12-15T05:29:50.250Z,83.94
2017-12-15T05:30:52.125Z,83.84
2017-12-15T05:32:06.273Z,83.84
2017-12-15T05:33:08.160Z,83.65
2017-12-15T05:34:10.046Z,84.03
2017-12-15T05:35:11.922Z,83.65
2017-12-15T05:36:13.746Z,83.74
2017-12-15T05:37:15.569Z,83.65
2017-12-15T05:38:17.455Z,83.65
2017-12-15T05:39:19.342Z,83.74
2017-12-15T05:40:21.231Z,84.03
2017-12-15T05:41:35.375Z,83.55
2017-12-15T05:42:37.261Z,83.84
2017-12-15T05:43:39.138Z,83.84
2017-12-15T05:44:41.012Z,84.50
2017-12-15T05:45:42.836Z,84.59
2017-12-15T05:46:44.646Z,84.88
2017-12-15T05:47:46.535Z,84.98
2017-12-15T05:48:48.411Z,85.07
2017-12-15T05:49:50.285Z,85.26
2017-12-15T05:51:04.416Z,85.26
2017-12-15T05:52:06.301Z,85.26
2017-12-15T05:53:08.178Z,84.78
2017-12-15T05:54:10.057Z,85.17
2017-12-15T05:55:11.871Z,85.55
2017-12-15T05:56:13.695Z,85.36
2017-12-15T05:57:15.525Z,85.45
2017-12-15T05:58:17.410Z,85.93
2017-12-15T05:59:19.286Z,86.21
2017-12-15T06:00:33.459Z,86.59
2017-12-15T06:01:35.377Z,86.59
2017-12-15T06:02:37.228Z,86.68
2017-12-15T06:03:39.114Z,86.78
2017-12-15T06:04:40.922Z,86.40
2017-12-15T06:05:42.735Z,86.30
2017-12-15T06:06:44.626Z,86.40
2017-12-15T06:07:46.505Z,86.40
2017-12-15T06:08:48.381Z,86.59
2017-12-15T06:10:02.628Z,86.40
2017-12-15T06:11:04.470Z,86.49
2017-12-15T06:12:06.346Z,86.49
2017-12-15T06:13:08.228Z,86.40
2017-12-15T06:14:10.037Z,86.21
2017-12-15T06:15:11.848Z,86.30
2017-12-15T06:16:13.733Z,86.49
2017-12-15T06:17:15.607Z,86.40
2017-12-15T06:18:17.496Z,86.59
2017-12-15T06:19:31.641Z,85.93
2017-12-15T06:20:33.527Z,86.11
2017-12-15T06:21:35.413Z,86.02
2017-12-15T06:22:37.299Z,86.02
2017-12-15T06:23:39.127Z,86.30
2017-12-15T06:24:40.962Z,85.93
2017-12-15T06:25:42.839Z,85.93
2017-12-15T06:26:44.715Z,85.93
2017-12-15T06:27:46.601Z,86.30
2017-12-15T06:29:00.752Z,86.21
2017-12-15T06:30:02.626Z,86.11
2017-12-15T06:31:04.505Z,85.93
2017-12-15T06:32:06.379Z,85.74
2017-12-15T06:33:08.192Z,85.93
2017-12-15T06:34:10.003Z,85.45
2017-12-15T06:35:11.877Z,85.36
2017-12-15T06:36:13.761Z,85.55
2017-12-15T06:37:15.649Z,85.64
2017-12-15T06:38:29.808Z,85.74
2017-12-15T06:39:31.672Z,85.55
2017-12-15T06:40:33.546Z,85.83
2017-12-15T06:41:35.428Z,85.74
2017-12-15T06:42:37.243Z,85.83
2017-12-15T06:43:39.054Z,85.74
2017-12-15T06:44:41.310Z,85.83
2017-12-15T06:45:43.200Z,85.64
2017-12-15T06:46:45.074Z,85.93
2017-12-15T06:47:59.234Z,85.64
2017-12-15T06:49:01.107Z,85.74
2017-12-15T06:50:02.986Z,85.55
2017-12-15T06:51:04.858Z,85.26
2017-12-15T06:52:06.674Z,85.26
2017-12-15T06:53:08.501Z,85.17
2017-12-15T06:54:10.377Z,85.36
2017-12-15T06:55:12.251Z,85.64
2017-12-15T06:56:14.127Z,85.55
2017-12-15T06:57:28.286Z,85.55
2017-12-15T06:58:30.173Z,85.64
2017-12-15T06:59:32.047Z,85.64
2017-12-15T07:00:33.921Z,85.45
2017-12-15T07:01:35.737Z,85.55
2017-12-15T07:02:37.560Z,85.45
2017-12-15T07:03:39.431Z,85.45
2017-12-15T07:04:41.316Z,85.64
2017-12-15T07:05:43.200Z,85.55
2017-12-15T07:06:57.349Z,85.55
2017-12-15T07:07:59.227Z,85.45
2017-12-15T07:09:01.101Z,85.07
2017-12-15T07:10:02.987Z,85.07
2017-12-15T07:11:04.804Z,85.07
2017-12-15T07:12:06.618Z,84.98
2017-12-15T07:13:08.503Z,85.17
2017-12-15T07:14:10.377Z,85.17
2017-12-15T07:15:12.254Z,85.07
2017-12-15T07:16:26.403Z,84.69
2017-12-15T07:17:28.277Z,84.69
2017-12-15T07:18:30.166Z,84.83
2017-12-15T07:19:32.038Z,85.02
2017-12-15T07:20:33.859Z,84.88
2017-12-15T07:21:35.682Z,84.55
2017-12-15T07:22:37.550Z,84.36
2017-12-15T07:23:39.424Z,84.74
2017-12-15T07:24:41.309Z,84.74
2017-12-15T07:25:55.461Z,84.64
2017-12-15T07:26:57.348Z,84.83
2017-12-15T07:27:59.234Z,84.07
2017-12-15T07:29:01.120Z,84.07
2017-12-15T07:30:02.939Z,84.07
2017-12-15T07:31:04.753Z,84.55
2017-12-15T07:32:06.627Z,84.26
2017-12-15T07:33:08.513Z,84.26
2017-12-15T07:34:10.392Z,84.55
2017-12-15T07:35:24.555Z,84.45
2017-12-15T07:36:26.432Z,84.64
2017-12-15T07:37:28.310Z,84.45
2017-12-15T07:38:30.196Z,83.97
2017-12-15T07:39:32.028Z,83.88
2017-12-15T07:40:33.844Z,84.07
2017-12-15T07:41:35.720Z,83.69
2017-12-15T07:42:37.599Z,83.69
2017-12-15T07:43:39.477Z,84.26
2017-12-15T07:44:53.638Z,83.97
2017-12-15T07:45:55.526Z,84.26
2017-12-15T07:46:57.416Z,83.88
2017-12-15T07:47:59.298Z,84.36
2017-12-15T07:49:01.116Z,83.78
2017-12-15T07:50:02.932Z,84.07
2017-12-15T07:51:04.807Z,83.97
2017-12-15T07:52:06.693Z,84.55
2017-12-15T07:53:08.570Z,84.64
2017-12-15T07:54:22.734Z,84.55
2017-12-15T07:55:24.621Z,84.64
2017-12-15T07:56:26.500Z,84.55
2017-12-15T07:57:28.380Z,84.07
2017-12-15T07:58:30.196Z,84.07
2017-12-15T07:59:32.010Z,84.03
2017-12-15T08:00:33.890Z,84.26
2017-12-15T08:01:35.768Z,84.74
2017-12-15T08:02:37.655Z,84.64
2017-12-15T08:03:51.866Z,84.36
2017-12-15T08:04:53.741Z,84.55
2017-12-15T08:05:55.629Z,85.02
2017-12-15T08:06:57.519Z,84.88
2017-12-15T08:07:59.337Z,85.07
2017-12-15T08:09:01.164Z,85.45
2017-12-15T08:10:03.101Z,85.36
2017-12-15T08:11:04.931Z,85.83
2017-12-15T08:12:06.820Z,86.49
2017-12-15T08:13:20.972Z,86.40
2017-12-15T08:14:22.849Z,86.21
2017-12-15T08:15:24.730Z,86.49
2017-12-15T08:16:26.604Z,86.68
2017-12-15T08:17:28.425Z,87.35
2017-12-15T08:18:30.241Z,87.82
2017-12-15T08:19:32.117Z,88.48
2017-12-15T08:20:33.995Z,88.01
2017-12-15T08:21:35.873Z,88.25
2017-12-15T08:22:50.024Z,88.68
2017-12-15T08:23:51.912Z,88.58
2017-12-15T08:24:53.800Z,88.58
2017-12-15T08:25:55.685Z,88.29
2017-12-15T08:26:57.505Z,88.29
2017-12-15T08:27:59.325Z,88.63
2017-12-15T08:29:01.196Z,88.82
2017-12-15T08:30:03.072Z,89.48
2017-12-15T08:31:04.952Z,89.53
2017-12-15T08:32:19.103Z,89.25
2017-12-15T08:33:20.991Z,88.39
2017-12-15T08:34:22.879Z,88.10
2017-12-15T08:35:24.763Z,88.20
2017-12-15T08:36:26.595Z,87.63
2017-12-15T08:37:28.411Z,87.45
2017-12-15T08:38:30.298Z,87.39
2017-12-15T08:39:32.175Z,87.01
2017-12-15T08:40:34.064Z,87.01
2017-12-15T08:41:48.214Z,86.44
2017-12-15T08:42:50.102Z,86.35
2017-12-15T08:43:51.979Z,86.44
2017-12-15T08:44:53.854Z,86.63
2017-12-15T08:45:55.676Z,86.16
2017-12-15T08:46:57.491Z,85.49
2017-12-15T08:47:59.380Z,85.59
2017-12-15T08:49:01.268Z,85.59
2017-12-15T08:50:03.164Z,85.30
2017-12-15T08:51:17.303Z,84.92
2017-12-15T08:52:19.180Z,84.55
2017-12-15T08:53:21.069Z,84.36
2017-12-15T08:54:22.978Z,84.55
2017-12-15T08:55:24.768Z,84.45
2017-12-15T08:56:26.594Z,84.55
2017-12-15T08:57:28.484Z,84.11
2017-12-15T08:58:30.372Z,84.11
2017-12-15T08:59:32.252Z,83.73
2017-12-15T09:00:46.406Z,84.21
2017-12-15T09:01:48.283Z,83.73
2017-12-15T09:02:50.172Z,83.83
2017-12-15T09:03:52.051Z,84.01
2017-12-15T09:04:53.876Z,83.26
2017-12-15T09:05:55.701Z,83.16
2017-12-15T09:06:57.590Z,83.36
2017-12-15T09:07:59.466Z,82.88
2017-12-15T09:09:01.358Z,82.97
2017-12-15T09:10:15.511Z,83.07
2017-12-15T09:11:17.388Z,83.07
2017-12-15T09:12:19.270Z,83.07
2017-12-15T09:13:21.145Z,82.97
2017-12-15T09:14:22.976Z,82.97
2017-12-15T09:15:24.803Z,82.97
2017-12-15T09:16:26.694Z,83.16
2017-12-15T09:17:28.582Z,82.69
2017-12-15T09:18:30.472Z,82.50
2017-12-15T09:19:44.685Z,82.69
2017-12-15T09:20:46.564Z,81.84
2017-12-15T09:21:48.452Z,82.78
2017-12-15T09:22:50.340Z,82.59
2017-12-15T09:23:52.164Z,82.21
2017-12-15T09:24:53.975Z,82.50
2017-12-15T09:25:55.854Z,82.69
2017-12-15T09:26:57.745Z,83.07
2017-12-15T09:27:59.626Z,82.88
2017-12-15T09:29:13.781Z,83.07
2017-12-15T09:30:15.661Z,83.36
2017-12-15T09:31:17.540Z,82.50
2017-12-15T09:32:19.428Z,82.40
2017-12-15T09:33:21.250Z,81.84
2017-12-15T09:34:23.067Z,82.40
2017-12-15T09:35:24.958Z,82.40
2017-12-15T09:36:26.854Z,82.31
2017-12-15T09:37:28.729Z,82.69
2017-12-15T09:38:42.935Z,82.40
2017-12-15T09:39:44.816Z,82.03
2017-12-15T09:40:46.696Z,82.40
2017-12-15T09:41:48.577Z,81.84
2017-12-15T09:42:50.409Z,82.21
2017-12-15T09:43:52.234Z,82.12
2017-12-15T09:44:54.104Z,82.21
2017-12-15T09:45:55.984Z,82.31
2017-12-15T09:46:57.866Z,82.21
2017-12-15T09:48:12.067Z,82.21
2017-12-15T09:49:13.946Z,82.40
2017-12-15T09:50:15.824Z,82.40
2017-12-15T09:51:17.702Z,82.50
2017-12-15T09:52:19.536Z,82.59
2017-12-15T09:53:21.352Z,82.55
2017-12-15T09:54:23.242Z,82.93
2017-12-15T09:55:25.121Z,83.40
2017-12-15T09:56:27.006Z,83.40
2017-12-15T09:57:41.158Z,84.45
2017-12-15T09:58:43.038Z,85.11
2017-12-15T09:59:44.920Z,85.74
2017-12-15T10:00:46.798Z,85.36
2017-12-15T10:01:48.616Z,85.26
2017-12-15T10:02:50.443Z,85.93
2017-12-15T10:03:52.334Z,86.21
2017-12-15T10:04:54.213Z,86.68
2017-12-15T10:05:56.093Z,86.68
2017-12-15T10:07:10.260Z,86.68
2017-12-15T10:08:12.152Z,86.97
2017-12-15T10:09:14.044Z,87.35
2017-12-15T10:10:15.920Z,87.92
2017-12-15T10:11:17.753Z,89.11
2017-12-15T10:12:19.570Z,89.39
2017-12-15T10:13:21.452Z,90.43
2017-12-15T10:14:23.330Z,91.38
2017-12-15T10:15:25.211Z,92.04
2017-12-15T10:16:39.364Z,93.18
2017-12-15T10:17:41.244Z,93.32
2017-12-15T10:18:43.126Z,93.61
2017-12-15T10:19:45.004Z,94.93
2017-12-15T10:20:46.825Z,95.12
2017-12-15T10:21:48.645Z,95.50
2017-12-15T10:22:50.533Z,95.50
2017-12-15T10:23:52.421Z,95.69
2017-12-15T10:24:54.314Z,96.26
2017-12-15T10:26:08.466Z,96.07
2017-12-15T10:27:10.343Z,96.26
2017-12-15T10:28:12.225Z,96.45
2017-12-15T10:29:14.102Z,96.64
2017-12-15T10:30:15.933Z,97.21
2017-12-15T10:31:17.762Z,97.40
2017-12-15T10:32:19.641Z,97.30
2017-12-15T10:33:21.528Z,97.59
2017-12-15T10:34:23.419Z,97.21
2017-12-15T10:35:37.582Z,97.87
2017-12-15T10:36:39.459Z,97.49
2017-12-15T10:37:41.339Z,97.49
2017-12-15T10:38:43.217Z,96.92
2017-12-15T10:39:45.037Z,97.21
2017-12-15T10:40:46.853Z,98.06
2017-12-15T10:41:48.729Z,97.87
2017-12-15T10:42:50.606Z,97.97
2017-12-15T10:43:52.496Z,98.06
2017-12-15T10:45:06.654Z,98.54
2017-12-15T10:46:08.534Z,98.06
2017-12-15T10:47:10.413Z,98.06
2017-12-15T10:48:12.290Z,97.49
2017-12-15T10:49:14.112Z,97.21
2017-12-15T10:50:15.927Z,97.21
2017-12-15T10:51:17.816Z,96.83
2017-12-15T10:52:19.703Z,96.55
2017-12-15T10:53:21.595Z,97.21
2017-12-15T10:54:35.757Z,96.83
2017-12-15T10:55:37.629Z,96.07
2017-12-15T10:56:39.518Z,96.64
2017-12-15T10:57:41.397Z,95.41
2017-12-15T10:58:43.221Z,96.07
2017-12-15T10:59:45.040Z,96.73
2017-12-15T11:00:46.918Z,95.45
2017-12-15T11:01:48.798Z,95.84
2017-12-15T11:02:50.675Z,96.31
2017-12-15T11:04:04.831Z,95.45
2017-12-15T11:05:06.710Z,94.89
2017-12-15T11:06:08.593Z,94.70
2017-12-15T11:07:10.487Z,95.17
2017-12-15T11:08:12.309Z,94.70
2017-12-15T11:09:14.127Z,94.60
2017-12-15T11:10:16.023Z,94.13
2017-12-15T11:11:17.897Z,93.84
2017-12-15T11:12:19.786Z,94.13
2017-12-15T11:13:33.950Z,93.84
2017-12-15T11:14:35.841Z,93.94
2017-12-15T11:15:37.732Z,94.51
2017-12-15T11:16:39.611Z,94.32
2017-12-15T11:17:41.432Z,94.23
2017-12-15T11:18:43.250Z,94.23
2017-12-15T11:19:45.132Z,93.84
2017-12-15T11:20:47.020Z,92.99
2017-12-15T11:21:48.913Z,93.32
2017-12-15T11:23:03.068Z,91.90
2017-12-15T11:24:04.960Z,91.80
2017-12-15T11:25:06.851Z,91.61
2017-12-15T11:26:08.731Z,91.42
2017-12-15T11:27:10.551Z,90.72
2017-12-15T11:28:12.380Z,90.62
2017-12-15T11:29:14.269Z,91.47
2017-12-15T11:30:16.159Z,91.85
2017-12-15T11:31:18.041Z,92.04
2017-12-15T11:32:32.195Z,91.85
2017-12-15T11:33:34.075Z,91.85
2017-12-15T11:34:35.957Z,91.76
2017-12-15T11:35:37.832Z,91.28
2017-12-15T11:36:39.655Z,91.42
2017-12-15T11:37:41.485Z,90.91
2017-12-15T11:38:43.364Z,90.53
2017-12-15T11:39:45.253Z,90.62
2017-12-15T11:40:47.136Z,90.81
2017-12-15T11:42:01.299Z,90.95
2017-12-15T11:43:03.190Z,90.38
2017-12-15T11:44:05.081Z,89.72
2017-12-15T11:45:06.969Z,89.06
2017-12-15T11:46:08.799Z,89.15
2017-12-15T11:47:10.611Z,89.06
2017-12-15T11:48:12.500Z,88.58
2017-12-15T11:49:14.379Z,88.68
2017-12-15T11:50:16.259Z,88.87
2017-12-15T11:51:30.423Z,88.87
2017-12-15T11:52:32.299Z,88.96
2017-12-15T11:53:34.189Z,88.39
2017-12-15T11:54:36.065Z,88.20
2017-12-15T11:55:37.896Z,88.68
2017-12-15T11:56:39.714Z,88.87
2017-12-15T11:57:41.593Z,88.77
2017-12-15T11:58:43.481Z,88.96
2017-12-15T11:59:45.374Z,89.34
2017-12-15T12:00:59.531Z,89.20
2017-12-15T12:02:01.409Z,89.34
2017-12-15T12:03:03.289Z,89.72
2017-12-15T12:04:05.167Z,89.34
2017-12-15T12:05:06.988Z,89.25
2017-12-15T12:06:08.817Z,88.48
2017-12-15T12:07:10.697Z,88.29
2017-12-15T12:08:12.589Z,88.01
2017-12-15T12:09:14.530Z,87.49
2017-12-15T12:10:28.629Z,86.68
2017-12-15T12:11:30.524Z,86.87
2017-12-15T12:12:32.417Z,86.78
2017-12-15T12:13:34.306Z,86.68
2017-12-15T12:14:36.129Z,86.78
2017-12-15T12:15:37.958Z,86.59
2017-12-15T12:16:39.851Z,86.40
2017-12-15T12:17:41.731Z,86.49
2017-12-15T12:18:43.625Z,86.68
2017-12-15T12:19:57.778Z,87.16
2017-12-15T12:20:59.669Z,87.45
2017-12-15T12:22:01.561Z,87.73
2017-12-15T12:23:03.444Z,86.78
2017-12-15T12:24:05.264Z,86.49
2017-12-15T12:25:07.092Z,86.49
2017-12-15T12:26:08.983Z,86.25
2017-12-15T12:27:10.887Z,85.78
2017-12-15T12:28:12.755Z,85.59
2017-12-15T12:29:26.969Z,85.21
2017-12-15T12:30:28.860Z,85.02
2017-12-15T12:31:30.752Z,85.11
2017-12-15T12:32:32.641Z,84.92
2017-12-15T12:33:34.471Z,84.36
2017-12-15T12:34:36.298Z,84.07
2017-12-15T12:35:38.194Z,84.17
2017-12-15T12:36:40.072Z,84.78
2017-12-15T12:37:41.963Z,85.07
2017-12-15T12:38:56.129Z,85.55
2017-12-15T12:39:58.020Z,85.17
2017-12-15T12:40:59.898Z,85.93
2017-12-15T12:42:01.780Z,85.74
2017-12-15T12:43:03.612Z,86.11
2017-12-15T12:44:05.441Z,86.30
2017-12-15T12:45:07.329Z,86.11
2017-12-15T12:46:09.209Z,86.40
2017-12-15T12:47:11.091Z,86.11
2017-12-15T12:48:25.244Z,86.40
2017-12-15T12:49:27.133Z,86.21
2017-12-15T12:50:29.023Z,86.40
2017-12-15T12:51:30.903Z,86.78
2017-12-15T12:52:32.724Z,87.06
2017-12-15T12:53:34.541Z,86.87
2017-12-15T12:54:36.435Z,86.21
2017-12-15T12:55:38.314Z,85.74
2017-12-15T12:56:40.205Z,85.64
2017-12-15T12:57:54.368Z,86.30
2017-12-15T12:58:56.247Z,86.40
2017-12-15T12:59:58.140Z,85.45
2017-12-15T13:01:00.033Z,85.74
2017-12-15T13:02:01.853Z,85.40
2017-12-15T13:03:03.669Z,85.68
2017-12-15T13:04:05.561Z,84.74
2017-12-15T13:05:07.441Z,84.64
2017-12-15T13:06:09.320Z,84.07
2017-12-15T13:07:23.471Z,83.88
2017-12-15T13:08:25.387Z,83.97
2017-12-15T13:09:27.231Z,83.88
2017-12-15T13:10:29.111Z,84.07
2017-12-15T13:11:30.930Z,83.97
2017-12-15T13:12:32.746Z,83.59
2017-12-15T13:13:34.599Z,83.92
2017-12-15T13:14:36.492Z,83.36
2017-12-15T13:15:38.376Z,82.88
2017-12-15T13:16:52.530Z,82.31
2017-12-15T13:17:54.412Z,81.93
2017-12-15T13:18:56.293Z,81.70
2017-12-15T13:19:58.186Z,81.70
2017-12-15T13:21:00.018Z,81.79
2017-12-15T13:22:01.836Z,81.70
2017-12-15T13:23:03.720Z,82.08
2017-12-15T13:24:05.599Z,82.27
2017-12-15T13:25:07.483Z,82.08
2017-12-15T13:26:21.635Z,82.27
2017-12-15T13:27:23.516Z,81.98
2017-12-15T13:28:25.400Z,81.55
2017-12-15T13:29:27.281Z,81.45
2017-12-15T13:30:29.102Z,81.07
2017-12-15T13:31:30.930Z,80.84
2017-12-15T13:32:32.810Z,80.75
2017-12-15T13:33:34.693Z,81.04